createdAt,value
2022-12-08T00:00:18.862Z,91.68
2022-12-08T00:04:21.500Z,91.48
2022-12-08T00:08:41.645Z,91.31
2022-12-08T00:12:44.294Z,90.72
2022-12-08T00:16:48.391Z,90.58
2022-12-08T00:20:56.140Z,90.30
2022-12-08T00:24:58.768Z,89.94
2022-12-08T00:29:01.397Z,89.58
2022-12-08T00:33:05.386Z,89.61
2022-12-08T00:37:08.089Z,89.53
2022-12-08T00:41:14.846Z,90.01
2022-12-08T00:45:17.629Z,89.70
2022-12-08T00:49:21.773Z,89.98
2022-12-08T00:53:24.454Z,89.89
2022-12-08T00:57:27.101Z,89.61
2022-12-08T01:01:29.820Z,89.78
2022-12-08T01:05:33.867Z,90.18
2022-12-08T01:09:36.591Z,90.12
2022-12-08T01:13:39.558Z,89.94
2022-12-08T01:17:42.215Z,90.32
2022-12-08T01:21:47.205Z,90.33
2022-12-08T01:25:49.912Z,90.28
2022-12-08T01:29:52.617Z,90.02
2022-12-08T01:33:55.302Z,89.66
2022-12-08T01:37:59.325Z,89.58
2022-12-08T01:42:01.980Z,89.56
2022-12-08T01:46:04.883Z,89.81
2022-12-08T01:50:11.368Z,89.70
2022-12-08T01:54:16.349Z,89.68
2022-12-08T01:58:23.658Z,89.56
2022-12-08T02:02:30.689Z,89.67
2022-12-08T02:06:38.571Z,89.75
2022-12-08T02:10:44.263Z,89.46
2022-12-08T02:14:47.047Z,89.25
2022-12-08T02:19:29.800Z,89.50
2022-12-08T02:23:32.382Z,89.60
2022-12-08T02:27:44.225Z,89.41
2022-12-08T02:31:59.685Z,89.85
2022-12-08T02:36:08.052Z,90.08
2022-12-08T02:40:18.557Z,89.99
2022-12-08T02:44:28.977Z,89.67
2022-12-08T02:48:31.898Z,89.05
2022-12-08T02:52:43.817Z,89.13
2022-12-08T02:57:08.665Z,89.38
2022-12-08T03:01:35.229Z,89.13
2022-12-08T03:05:56.701Z,89.46
2022-12-08T03:10:09.916Z,90.32
2022-12-08T03:14:17.232Z,90.60
2022-12-08T03:18:24.569Z,91.47
2022-12-08T03:22:30.035Z,92.55
2022-12-08T03:26:39.642Z,93.06
2022-12-08T03:30:47.076Z,93.13
2022-12-08T03:34:51.534Z,93.82
2022-12-08T03:38:55.626Z,93.79
2022-12-08T03:42:59.674Z,93.59
2022-12-08T03:47:02.491Z,93.71
2022-12-08T03:51:05.351Z,93.59
2022-12-08T03:55:08.823Z,93.89
2022-12-08T03:59:13.290Z,93.46
2022-12-08T04:03:16.021Z,93.35
2022-12-08T04:07:18.755Z,93.13
2022-12-08T04:11:22.147Z,92.87
2022-12-08T04:15:26.178Z,92.88
2022-12-08T04:19:28.998Z,92.59
2022-12-08T04:23:31.638Z,92.89
2022-12-08T04:27:34.398Z,92.45
2022-12-08T04:31:38.837Z,92.14
2022-12-08T04:35:41.536Z,92.33
2022-12-08T04:39:44.235Z,92.68
2022-12-08T04:43:46.895Z,92.68
2022-12-08T04:47:50.987Z,92.63
2022-12-08T04:51:53.685Z,94.93
2022-12-08T04:55:56.540Z,94.90
2022-12-08T04:59:59.207Z,93.88
2022-12-08T05:04:03.277Z,92.67
2022-12-08T05:08:06.639Z,92.47
2022-12-08T05:12:09.487Z,92.70
2022-12-08T05:16:14.289Z,91.81
2022-12-08T05:20:18.449Z,91.87
2022-12-08T05:24:21.124Z,91.72
2022-12-08T05:32:46.616Z,91.16
2022-12-08T05:36:50.620Z,91.21
2022-12-08T05:40:53.284Z,91.12
2022-12-08T05:44:56.023Z,89.67
2022-12-08T05:49:00.288Z,89.99
2022-12-08T05:53:04.310Z,89.42
2022-12-08T05:57:07.076Z,89.99
2022-12-08T06:01:19.872Z,89.64
2022-12-08T06:05:22.540Z,90.07
2022-12-08T06:09:26.723Z,90.55
2022-12-08T06:13:29.407Z,90.64
2022-12-08T06:17:32.092Z,90.72
2022-12-08T06:21:34.839Z,91.12
2022-12-08T06:25:38.851Z,91.69
2022-12-08T06:29:41.708Z,91.00
2022-12-08T06:33:44.645Z,90.82
2022-12-08T06:37:47.287Z,90.90
2022-12-08T06:42:08.598Z,91.42
2022-12-08T06:46:13.718Z,91.54
2022-12-08T06:50:16.695Z,92.53
2022-12-08T06:54:19.412Z,92.63
2022-12-08T06:58:23.434Z,92.62
2022-12-08T07:02:26.199Z,92.55
2022-12-08T07:06:28.890Z,93.01
2022-12-08T07:10:31.741Z,93.21
2022-12-08T07:14:35.715Z,93.57
2022-12-08T07:18:39.293Z,93.57
2022-12-08T07:22:42.687Z,93.69
2022-12-08T07:26:45.364Z,94.19
2022-12-08T07:30:49.459Z,94.04
2022-12-08T07:34:52.187Z,93.80
2022-12-08T07:38:55.295Z,93.86
2022-12-08T07:42:58.682Z,93.69
2022-12-08T07:47:02.716Z,94.25
2022-12-08T07:51:06.815Z,94.26
2022-12-08T07:55:10.649Z,94.14
2022-12-08T07:59:14.348Z,94.03
2022-12-08T08:03:18.654Z,93.93
2022-12-08T08:07:21.493Z,94.16
2022-12-08T08:11:24.821Z,93.77
2022-12-08T08:15:27.801Z,93.64
2022-12-08T08:19:32.492Z,93.48
2022-12-08T08:23:35.272Z,94.14
2022-12-08T08:27:37.949Z,93.75
2022-12-08T08:31:40.681Z,93.82
2022-12-08T08:35:44.736Z,94.48
2022-12-08T08:39:47.481Z,94.40
2022-12-08T08:43:50.182Z,94.12
2022-12-08T08:47:52.872Z,94.26
2022-12-08T08:51:56.943Z,94.07
2022-12-08T08:56:02.645Z,94.09
2022-12-08T09:00:07.629Z,93.84
2022-12-08T09:04:11.257Z,93.93
2022-12-08T09:08:15.362Z,93.82
2022-12-08T09:12:18.289Z,94.24
2022-12-08T09:16:21.671Z,93.90
2022-12-08T09:20:24.429Z,93.60
2022-12-08T09:24:28.556Z,93.05
2022-12-08T09:28:31.283Z,93.33
2022-12-08T09:32:33.982Z,93.52
2022-12-08T09:36:36.895Z,93.98
2022-12-08T09:40:47.524Z,93.41
2022-12-08T09:44:59.858Z,93.23
2022-12-08T09:49:04.212Z,93.06
2022-12-08T09:53:13.315Z,93.21
2022-12-08T09:57:21.865Z,93.45
2022-12-08T10:01:29.612Z,93.10
2022-12-08T10:05:38.658Z,93.23
2022-12-08T10:09:46.578Z,93.05
2022-12-08T10:13:59.940Z,93.41
2022-12-08T10:18:05.267Z,93.63
2022-12-08T10:22:19.591Z,92.84
2022-12-08T10:26:23.438Z,92.84
2022-12-08T10:30:27.969Z,93.24
2022-12-08T10:34:30.591Z,93.75
2022-12-08T10:38:35.305Z,93.29
2022-12-08T10:42:44.108Z,93.48
2022-12-08T10:46:48.237Z,93.79
2022-12-08T10:50:55.458Z,93.49
2022-12-08T10:55:01.622Z,93.74
2022-12-08T10:59:14.845Z,93.31
2022-12-08T11:03:25.992Z,93.29
2022-12-08T11:07:29.161Z,93.49
2022-12-08T11:11:40.163Z,93.43
2022-12-08T11:15:45.510Z,93.78
2022-12-08T11:19:59.485Z,94.09
2022-12-08T11:24:19.213Z,93.98
2022-12-08T11:28:25.373Z,94.23
2022-12-08T11:32:28.077Z,94.27
2022-12-08T11:36:36.337Z,93.88
2022-12-08T11:40:41.607Z,94.09
2022-12-08T11:44:52.297Z,93.38
2022-12-08T11:49:05.953Z,93.12
2022-12-08T11:53:17.941Z,93.34
2022-12-08T11:57:24.157Z,93.21
2022-12-08T12:01:27.737Z,92.98
2022-12-08T12:06:08.671Z,93.37
2022-12-08T12:10:26.840Z,93.46
2022-12-08T12:14:47.977Z,93.53
2022-12-08T12:18:53.915Z,92.86
2022-12-08T12:23:02.441Z,92.68
2022-12-08T12:27:16.660Z,92.84
2022-12-08T12:31:22.857Z,92.73
2022-12-08T12:35:34.449Z,92.50
2022-12-08T12:39:49.963Z,92.45
2022-12-08T12:44:24.065Z,92.76
2022-12-08T12:48:28.362Z,93.04
2022-12-08T12:52:38.898Z,93.23
2022-12-08T12:56:50.208Z,93.24
2022-12-08T13:01:32.785Z,93.26
2022-12-08T16:39:42.372Z,96.25
2022-12-08T16:43:49.122Z,96.00
2022-12-08T16:47:53.116Z,95.87
2022-12-08T16:51:55.812Z,95.81
2022-12-08T16:55:59.845Z,95.60
2022-12-08T17:00:03.681Z,95.70
2022-12-08T17:04:30.478Z,95.70
2022-12-08T17:08:29.378Z,95.60
2022-12-08T17:12:35.636Z,95.58
2022-12-08T17:16:38.509Z,95.63
2022-12-08T17:20:41.235Z,95.70
2022-12-08T17:24:43.922Z,95.74
2022-12-08T17:29:03.247Z,96.06
2022-12-08T17:33:06.013Z,96.40
2022-12-08T17:37:08.941Z,96.13
2022-12-08T17:41:12.767Z,96.09
2022-12-08T17:45:16.893Z,95.83
2022-12-08T17:49:22.190Z,95.79
2022-12-08T17:53:24.931Z,95.52
2022-12-08T17:57:27.667Z,95.43
2022-12-08T18:01:34.385Z,94.97
2022-12-08T18:05:37.168Z,95.16
2022-12-08T18:09:39.922Z,95.06
2022-12-08T18:13:42.809Z,95.15
2022-12-08T18:17:46.990Z,94.82
2022-12-08T18:21:49.696Z,95.06
2022-12-08T18:25:52.420Z,94.95
2022-12-08T18:29:55.180Z,94.83
2022-12-08T18:33:59.195Z,94.71
2022-12-08T18:38:02.021Z,94.83
2022-12-08T18:42:22.952Z,94.81
2022-12-08T18:46:26.562Z,94.96
2022-12-08T18:50:30.615Z,94.75
2022-12-08T18:55:04.680Z,94.80
2022-12-08T18:59:01.476Z,94.76
2022-12-08T19:03:06.224Z,94.85
2022-12-08T19:07:10.642Z,94.71
2022-12-08T19:11:19.104Z,94.41
2022-12-08T19:15:21.937Z,94.60
2022-12-08T19:19:24.633Z,94.50
2022-12-08T19:23:29.131Z,94.51
2022-12-08T19:27:34.105Z,94.63
2022-12-08T19:31:36.925Z,94.53
2022-12-08T19:35:39.658Z,94.70
2022-12-08T19:40:01.351Z,94.65
2022-12-08T19:44:21.531Z,94.73
2022-12-08T19:48:24.243Z,94.84
2022-12-08T19:52:26.927Z,94.53
2022-12-08T19:56:30.961Z,94.58
2022-12-08T20:00:35.288Z,94.24
2022-12-08T20:04:37.974Z,94.40
2022-12-08T20:08:41.548Z,94.40
2022-12-08T20:12:47.849Z,94.45
2022-12-08T20:16:50.855Z,94.52
2022-12-08T20:20:53.714Z,94.32
2022-12-08T20:24:59.584Z,94.36
2022-12-08T20:29:05.042Z,94.60
2022-12-08T20:33:07.972Z,94.51
2022-12-08T20:37:10.672Z,94.72
2022-12-08T20:41:15.898Z,94.81
2022-12-08T20:45:20.403Z,94.86
2022-12-08T20:49:23.116Z,94.81
2022-12-08T20:53:25.957Z,94.64
2022-12-08T20:57:28.734Z,94.81
2022-12-08T21:01:33.291Z,95.05
2022-12-08T21:05:38.871Z,94.85
2022-12-08T21:09:41.863Z,94.83
2022-12-08T21:13:45.152Z,94.69
2022-12-08T21:17:49.544Z,94.60
2022-12-08T21:21:52.528Z,94.58
2022-12-08T21:25:55.589Z,94.56
2022-12-08T21:29:58.323Z,94.70
2022-12-08T21:34:03.175Z,94.32
2022-12-08T21:38:07.149Z,94.34
2022-12-08T21:42:33.747Z,94.54
2022-12-08T21:46:37.186Z,94.52
2022-12-08T21:50:41.408Z,94.27
2022-12-08T21:54:44.372Z,94.26
2022-12-08T21:58:47.067Z,94.28
2022-12-08T22:02:50.027Z,94.50
2022-12-08T22:06:54.495Z,94.02
2022-12-08T22:10:57.320Z,94.07
2022-12-08T22:15:00.324Z,94.40
2022-12-08T22:19:03.067Z,94.31
2022-12-08T22:23:07.259Z,94.30
2022-12-08T22:27:10.145Z,94.29
2022-12-08T22:31:15.902Z,94.43
2022-12-08T22:35:18.923Z,94.30
2022-12-08T22:39:23.151Z,94.10
2022-12-08T22:43:26.036Z,94.10
2022-12-08T22:47:28.964Z,94.18
2022-12-08T22:51:32.072Z,94.35
2022-12-08T22:55:36.305Z,93.99
2022-12-08T22:59:41.001Z,93.94
2022-12-08T23:03:43.840Z,93.82
2022-12-08T23:07:47.104Z,94.20
2022-12-08T23:11:51.404Z,94.30
2022-12-08T23:15:54.084Z,94.27
2022-12-08T23:19:56.745Z,94.21
2022-12-08T23:24:01.996Z,94.23
2022-12-08T23:28:06.289Z,94.27
2022-12-08T23:32:09.084Z,94.46
2022-12-08T23:36:12.873Z,94.29
2022-12-08T23:40:15.717Z,94.35
2022-12-08T23:44:19.789Z,94.39
2022-12-08T23:48:22.479Z,94.11
2022-12-08T23:52:25.750Z,94.29
2022-12-08T23:56:30.392Z,94.21
